createdAt,value
2017-11-22T09:22:48.196Z,16.60
2017-11-22T09:25:17.357Z,14.70
2017-11-22T09:27:50.393Z,15.43
2017-11-22T09:30:17.778Z,18.33
2017-11-22T09:32:45.230Z,15.90
2017-11-22T09:35:15.116Z,14.30
2017-11-22T09:37:42.537Z,14.77
2017-11-22T09:40:09.971Z,14.40
2017-11-22T09:42:39.328Z,13.90
2017-11-22T09:45:06.716Z,15.17
2017-11-22T09:47:34.152Z,16.10
2017-11-22T09:50:01.566Z,15.33
2017-11-22T09:52:28.970Z,14.70
2017-11-22T09:54:56.378Z,15.87
2017-11-22T09:57:24.725Z,14.20
2017-11-22T09:59:52.118Z,13.10
2017-11-22T10:02:19.531Z,14.70
2017-11-22T10:04:46.931Z,14.10
2017-11-22T10:07:14.341Z,14.80
2017-11-22T10:09:41.755Z,13.97
2017-11-22T10:12:09.156Z,14.53
2017-11-22T10:14:36.574Z,14.53
2017-11-22T10:17:09.624Z,15.07
2017-11-22T10:19:42.591Z,13.20
2017-11-22T10:22:10.351Z,13.83
2017-11-22T10:24:44.264Z,14.50
2017-11-22T10:27:17.271Z,13.90
2017-11-22T10:29:46.614Z,13.60
2017-11-22T10:32:19.589Z,13.27
2017-11-22T10:34:47.089Z,14.83
2017-11-22T10:37:14.574Z,12.50
2017-11-22T10:39:41.979Z,13.57
2017-11-22T10:42:09.418Z,13.83
2017-11-22T10:44:36.815Z,13.00
2017-11-22T10:47:04.246Z,13.67
2017-11-22T10:49:31.656Z,13.53
2017-11-22T10:51:59.104Z,12.60
2017-11-22T10:54:26.484Z,13.30
2017-11-22T10:56:53.909Z,13.10
2017-11-22T10:59:21.311Z,13.03
2017-11-22T11:01:48.703Z,13.97
2017-11-22T11:04:16.125Z,13.67
2017-11-22T11:06:43.534Z,12.53
2017-11-22T11:09:10.956Z,14.80
2017-11-22T11:11:38.352Z,12.37
2017-11-22T11:14:05.770Z,12.40
2017-11-22T11:16:33.166Z,13.37
2017-11-22T11:19:00.782Z,12.47
2017-11-22T11:21:28.182Z,12.57
2017-11-22T11:23:55.605Z,12.20
2017-11-22T11:26:23.143Z,11.73
2017-11-22T11:28:50.565Z,13.00
2017-11-22T11:31:18.062Z,11.37
2017-11-22T11:33:45.434Z,13.50
2017-11-22T11:36:24.615Z,12.63
2017-11-22T11:38:52.019Z,11.50
2017-11-22T11:41:19.459Z,12.30
2017-11-22T11:43:46.846Z,10.93
2017-11-22T11:46:14.264Z,12.13
2017-11-22T11:48:41.679Z,12.23
2017-11-22T11:51:09.091Z,12.17
2017-11-22T11:53:36.511Z,11.80
2017-11-22T11:56:03.902Z,11.70
2017-11-22T11:58:31.332Z,11.97
2017-11-22T12:00:58.739Z,11.87
2017-11-22T12:03:26.306Z,12.80
2017-11-22T12:05:53.710Z,11.73
2017-11-22T12:08:21.119Z,12.37
2017-11-22T12:10:48.740Z,11.90
2017-11-22T12:13:16.147Z,12.43
2017-11-22T12:15:43.543Z,13.10
2017-11-22T12:18:10.979Z,11.17
2017-11-22T12:20:38.394Z,12.60
2017-11-22T12:23:11.304Z,12.23
2017-11-22T12:25:38.713Z,11.67
2017-11-22T12:28:06.157Z,12.30
2017-11-22T12:30:33.549Z,12.60
2017-11-22T12:33:00.955Z,12.37
2017-11-22T12:35:28.376Z,12.20
2017-11-22T12:37:55.776Z,14.10
2017-11-22T12:40:23.194Z,13.03
2017-11-22T12:42:50.584Z,9.40
2017-11-22T12:45:17.986Z,10.33
2017-11-22T12:47:45.391Z,9.43
2017-11-22T12:50:12.818Z,10.60
2017-11-22T12:52:40.226Z,9.03
2017-11-22T12:55:07.672Z,9.23
2017-11-22T13:00:28.122Z,9.30
2017-11-22T13:02:55.521Z,9.90
2017-11-22T13:05:22.959Z,8.80
2017-11-22T13:07:50.359Z,10.37
2017-11-22T13:10:20.546Z,10.47
2017-11-22T13:12:47.935Z,9.10
2017-11-22T13:15:15.350Z,10.80
2017-11-22T13:17:42.774Z,9.13
2017-11-22T13:20:10.195Z,9.37
2017-11-22T13:22:37.618Z,9.20
2017-11-22T13:25:05.033Z,8.70
2017-11-22T13:27:32.469Z,8.47
2017-11-22T13:29:59.861Z,8.87
2017-11-22T13:32:41.720Z,9.00
2017-11-22T13:35:09.136Z,8.60
2017-11-22T13:37:36.543Z,8.03
2017-11-22T13:40:03.948Z,9.07
2017-11-22T13:42:31.414Z,9.77
2017-11-22T13:44:58.821Z,7.83
2017-11-22T13:47:26.272Z,8.43
2017-11-22T13:49:53.650Z,8.20
2017-11-22T13:52:21.035Z,8.30
2017-11-22T13:54:48.451Z,9.17
2017-11-22T13:57:15.862Z,8.85
2017-11-22T13:59:43.314Z,7.67
2017-11-22T14:02:10.703Z,8.43
2017-11-22T14:04:38.094Z,7.57
2017-11-22T14:07:05.499Z,8.10
2017-11-22T14:09:32.931Z,7.90
2017-11-22T14:12:00.349Z,7.93
2017-11-22T14:14:27.768Z,7.97
2017-11-22T14:16:55.183Z,6.90
2017-11-22T14:19:22.585Z,7.20
2017-11-22T14:21:50.008Z,6.70
2017-11-22T14:24:17.410Z,7.17
2017-11-22T14:26:44.832Z,8.93
2017-11-22T14:29:12.233Z,7.90
2017-11-22T14:31:39.669Z,7.87
2017-11-22T14:34:07.112Z,8.20
2017-11-22T14:36:34.535Z,6.80
2017-11-22T14:39:01.971Z,8.77
2017-11-22T14:41:29.369Z,7.50
2017-11-22T14:43:56.788Z,8.23
2017-11-22T14:46:24.182Z,7.90
2017-11-22T14:48:51.622Z,7.10
2017-11-22T14:51:19.042Z,7.70
2017-11-22T14:53:46.453Z,8.63
2017-11-22T14:56:13.850Z,7.40
2017-11-22T14:58:41.306Z,7.17
2017-11-22T15:01:08.738Z,6.83
2017-11-22T15:03:36.114Z,8.10
2017-11-22T15:06:03.578Z,6.10
2017-11-22T15:08:31.019Z,6.10
2017-11-22T15:10:58.428Z,6.93
2017-11-22T15:13:25.809Z,7.33
2017-11-22T15:15:53.276Z,6.90
2017-11-22T15:18:20.763Z,8.43
2017-11-22T15:20:48.198Z,7.93
2017-11-22T15:23:15.692Z,8.70
2017-11-22T15:25:43.101Z,9.10
2017-11-22T15:28:10.530Z,8.00
2017-11-22T15:30:37.940Z,7.73
2017-11-22T15:33:05.347Z,6.77
2017-11-22T15:35:32.844Z,6.40
2017-11-22T15:38:00.235Z,6.67
2017-11-22T15:40:27.660Z,6.43
2017-11-22T15:42:55.047Z,5.80
2017-11-22T15:45:22.430Z,8.00
2017-11-22T15:47:49.844Z,7.53
2017-11-22T15:50:17.288Z,6.70
2017-11-22T15:52:44.682Z,6.83
2017-11-22T15:55:12.112Z,6.90
2017-11-22T15:57:39.502Z,6.43
2017-11-22T16:00:06.918Z,6.40
2017-11-22T16:02:34.377Z,6.27
2017-11-22T16:05:01.766Z,6.97
2017-11-22T16:07:29.174Z,6.50
2017-11-22T16:09:56.602Z,6.33
2017-11-22T16:12:24.038Z,6.60
2017-11-22T16:14:51.448Z,6.70
2017-11-22T16:17:18.858Z,6.80
2017-11-22T16:19:46.286Z,5.97
2017-11-22T16:22:13.659Z,5.97
2017-11-22T16:24:41.091Z,5.90
2017-11-22T16:27:08.484Z,5.70
2017-11-22T16:29:35.926Z,5.90
2017-11-22T16:32:03.325Z,5.90
2017-11-22T16:34:30.757Z,6.65
2017-11-22T16:36:58.172Z,5.90
2017-11-22T16:39:25.582Z,6.10
2017-11-22T16:41:53.006Z,7.50
2017-11-22T16:44:20.404Z,5.97
2017-11-22T16:46:47.861Z,7.07
2017-11-22T16:49:15.276Z,6.10
2017-11-22T16:51:42.709Z,6.10
2017-11-22T16:54:10.134Z,6.33
2017-11-22T16:56:37.541Z,6.23
2017-11-22T16:59:04.959Z,7.60
2017-11-22T17:01:32.392Z,5.97
2017-11-22T17:03:59.819Z,6.70
2017-11-22T17:06:27.224Z,6.40
2017-11-22T17:08:54.613Z,5.80
2017-11-22T17:11:22.022Z,10.87
2017-11-22T17:13:49.443Z,6.33
2017-11-22T17:16:16.837Z,6.47
2017-11-22T17:18:44.262Z,7.80
2017-11-22T17:21:11.674Z,7.00
2017-11-22T17:23:39.265Z,11.90
2017-11-22T17:26:06.686Z,28.10
2017-11-22T17:28:34.086Z,13.53
2017-11-22T17:31:01.509Z,8.77
2017-11-22T17:33:28.913Z,7.40
2017-11-22T17:35:56.354Z,7.33
2017-11-22T17:38:23.746Z,8.37
2017-11-22T17:40:51.182Z,8.07
2017-11-22T17:43:18.615Z,9.00
2017-11-22T17:45:46.036Z,7.68
2017-11-22T17:48:13.469Z,7.20
2017-11-22T17:50:40.903Z,7.43
2017-11-22T17:53:08.335Z,7.73
2017-11-22T17:55:35.751Z,7.90
2017-11-22T17:58:03.186Z,8.37
2017-11-22T18:00:30.577Z,9.30
2017-11-22T18:02:58.005Z,9.37
2017-11-22T18:05:25.422Z,8.70
2017-11-22T18:07:52.837Z,9.27
2017-11-22T18:10:20.227Z,7.60
2017-11-22T18:12:47.657Z,9.93
2017-11-22T18:15:15.049Z,8.87
2017-11-22T18:17:42.498Z,8.07
2017-11-22T18:20:09.881Z,9.23
2017-11-22T18:22:37.304Z,10.60
2017-11-22T18:25:04.707Z,10.53
2017-11-22T18:27:32.135Z,11.65
2017-11-22T18:29:59.636Z,11.50
2017-11-22T18:32:27.535Z,12.40
2017-11-22T18:34:54.955Z,12.40
2017-11-22T18:37:22.413Z,12.03
2017-11-22T18:39:49.826Z,11.30
2017-11-22T18:42:17.239Z,12.53
2017-11-22T18:44:44.665Z,12.70
2017-11-22T18:47:12.079Z,10.93
2017-11-22T18:49:39.519Z,11.60
2017-11-22T18:52:06.944Z,13.40
2017-11-22T18:54:34.338Z,13.20
2017-11-22T18:57:01.803Z,12.17
2017-11-22T18:59:29.273Z,11.60
2017-11-22T19:01:56.727Z,11.43
2017-11-22T19:04:24.161Z,12.40
2017-11-22T19:06:51.573Z,12.40
2017-11-22T19:09:18.977Z,12.30
2017-11-22T19:11:46.426Z,12.97
2017-11-22T19:14:13.855Z,12.27
2017-11-22T19:16:41.282Z,13.00
2017-11-22T19:19:08.730Z,12.50
2017-11-22T19:21:36.168Z,11.80
2017-11-22T19:24:03.586Z,12.20
2017-11-22T19:26:31.078Z,11.43
2017-11-22T19:28:58.474Z,9.73
2017-11-22T19:31:25.916Z,10.83
2017-11-22T19:33:58.293Z,11.73
2017-11-22T19:36:25.732Z,11.40
2017-11-22T19:38:53.436Z,10.50
2017-11-22T19:41:20.912Z,10.97
2017-11-22T19:43:48.346Z,10.83
2017-11-22T19:46:15.806Z,9.60
2017-11-22T19:48:43.338Z,10.67
2017-11-22T19:51:10.781Z,11.70
2017-11-22T19:53:38.234Z,11.10
2017-11-22T19:56:05.773Z,11.13
2017-11-22T19:58:33.181Z,11.37
2017-11-22T20:01:00.631Z,9.87
2017-11-22T20:03:28.052Z,10.93
2017-11-22T20:05:55.496Z,10.30
2017-11-22T20:08:34.717Z,10.83
2017-11-22T20:11:02.132Z,10.70
2017-11-22T20:13:29.685Z,10.43
2017-11-22T20:15:57.140Z,10.63
2017-11-22T20:18:24.662Z,10.27
2017-11-22T20:20:52.217Z,10.27
2017-11-22T20:23:19.755Z,11.00
2017-11-22T20:25:47.229Z,10.73
2017-11-22T20:28:14.700Z,10.17
2017-11-22T20:30:54.635Z,10.27
2017-11-22T20:33:22.268Z,10.50
2017-11-22T20:35:49.793Z,9.43
2017-11-22T20:38:17.444Z,10.90
2017-11-22T20:40:44.918Z,10.90
2017-11-22T20:43:12.393Z,10.83
2017-11-22T20:45:39.907Z,9.83
2017-11-22T20:48:07.445Z,12.07
2017-11-22T20:50:34.954Z,10.40
2017-11-22T20:53:02.463Z,9.20
2017-11-22T20:55:29.887Z,8.73
2017-11-22T20:57:57.320Z,9.67
2017-11-22T21:00:24.736Z,10.00
2017-11-22T21:02:52.264Z,9.30
2017-11-22T21:05:19.740Z,9.30
2017-11-22T21:07:47.155Z,10.70
2017-11-22T21:10:14.688Z,9.73
2017-11-22T21:12:42.137Z,10.07
2017-11-22T21:15:09.568Z,10.60
2017-11-22T21:17:37.044Z,9.70
2017-11-22T21:20:04.482Z,9.03
2017-11-22T21:22:31.882Z,9.23
2017-11-22T21:24:59.367Z,9.50
2017-11-22T21:27:26.749Z,9.97
2017-11-22T21:29:54.195Z,10.47
2017-11-22T21:32:21.648Z,9.87
2017-11-22T21:34:49.104Z,10.20
2017-11-22T21:37:16.503Z,9.70
2017-11-22T21:39:44.083Z,10.10
2017-11-22T21:42:11.492Z,9.67
2017-11-22T21:44:38.892Z,10.20
2017-11-22T21:47:06.408Z,9.93
2017-11-22T21:49:33.811Z,10.70
2017-11-22T21:52:01.236Z,10.00
2017-11-22T21:54:28.635Z,10.60
2017-11-22T21:56:56.067Z,9.50
2017-11-22T21:59:23.821Z,10.30
2017-11-22T22:01:51.340Z,10.10
2017-11-22T22:04:18.754Z,11.13
2017-11-22T22:06:46.208Z,11.40
2017-11-22T22:09:13.627Z,8.83
2017-11-22T22:11:41.063Z,12.47
2017-11-22T22:14:08.452Z,23.20
2017-11-22T22:16:35.934Z,12.87
2017-11-22T22:19:03.340Z,12.98
2017-11-22T22:21:30.747Z,20.30
2017-11-22T22:23:58.159Z,17.20
2017-11-22T22:26:25.567Z,13.53
2017-11-22T22:28:53.006Z,12.83
2017-11-22T22:31:20.428Z,15.70
2017-11-22T22:33:47.850Z,25.53
2017-11-22T22:36:15.283Z,13.20
2017-11-22T22:38:42.707Z,13.20
2017-11-22T22:41:10.092Z,12.17
2017-11-22T22:43:37.511Z,12.73
2017-11-22T22:46:04.905Z,11.33
2017-11-22T22:48:32.321Z,12.10
2017-11-22T22:50:59.721Z,11.77
2017-11-22T22:53:27.169Z,10.67
2017-11-22T22:55:54.564Z,11.47
2017-11-22T22:58:21.998Z,10.80
2017-11-22T23:00:49.401Z,11.27
2017-11-22T23:03:16.808Z,12.10
2017-11-22T23:05:44.227Z,11.20
2017-11-22T23:08:11.623Z,10.70
2017-11-22T23:10:39.019Z,10.30
2017-11-22T23:13:06.551Z,12.43
2017-11-22T23:15:33.939Z,10.63
2017-11-22T23:18:01.359Z,10.80
2017-11-22T23:20:28.775Z,11.17
2017-11-22T23:22:56.198Z,10.47
2017-11-22T23:25:23.615Z,10.00
2017-11-22T23:27:51.038Z,11.20
2017-11-22T23:30:18.415Z,10.57
2017-11-22T23:32:45.845Z,11.20
2017-11-22T23:35:13.232Z,10.67
2017-11-22T23:37:40.624Z,10.33
2017-11-22T23:40:08.078Z,10.40
2017-11-22T23:42:35.477Z,9.27
2017-11-22T23:45:02.886Z,9.40
2017-11-22T23:47:30.286Z,9.33
2017-11-22T23:49:57.697Z,10.30
2017-11-22T23:52:25.108Z,10.23
2017-11-22T23:54:52.536Z,10.67
2017-11-22T23:57:19.969Z,9.03
2017-11-22T23:59:47.343Z,10.80
